sensor_id;sensor_type;location;lat;lon;timestamp;temperature;humidity
77700;DHT22;66867;42.658;23.320;2023-02-01T00:00:00;4.3;71
77700;DHT22;66867;42.658;23.320;2023-02-01T00:01:04;4.4;71
77700;DHT22;66867;42.658;23.320;2023-02-01T00:02:00;4.4;71
77700;DHT22;66867;42.658;23.320;2023-02-01T00:03:00;4.4;71
77700;DHT22;66867;42.658;23.320;2023-02-01T00:04:00;4.5;71
77700;DHT22;66867;42.658;23.320;2023-02-01T00:05:00;4.4;71
77700;DHT22;66867;42.658;23.320;2023-02-01T00:06:00;4.5;71
77700;DHT22;66867;42.658;23.320;2023-02-01T00:07:00;4.5;70
77700;DHT22;66867;42.658;23.320;2023-02-01T00:08:00;4.4;70
77700;DHT22;66867;42.658;23.320;2023-02-01T00:09:00;4.3;71
77700;DHT22;66867;42.658;23.320;2023-02-01T00:10:00;4.3;71
77700;DHT22;66867;42.658;23.320;2023-02-01T00:11:00;4.3;71
77700;DHT22;66867;42.658;23.320;2023-02-01T00:12:00;4.3;71
77700;DHT22;66867;42.658;23.320;2023-02-01T00:13:00;4.3;71
77700;DHT22;66867;42.658;23.320;2023-02-01T00:14:00;4.2;71
77700;DHT22;66867;42.658;23.320;2023-02-01T00:15:00;4.2;71
77700;DHT22;66867;42.658;23.320;2023-02-01T00:16:04;4.2;71
77700;DHT22;66867;42.658;23.320;2023-02-01T00:17:00;4.2;71
77700;DHT22;66867;42.658;23.320;2023-02-01T00:18:00;4.3;71
77700;DHT22;66867;42.658;23.320;2023-02-01T00:19:01;4.3;71
77700;DHT22;66867;42.658;23.320;2023-02-01T00:20:00;4.3;71
77700;DHT22;66867;42.658;23.320;2023-02-01T00:21:00;4.2;71
77700;DHT22;66867;42.658;23.320;2023-02-01T00:22:00;4.2;71
77700;DHT22;66867;42.658;23.320;2023-02-01T00:23:00;4.1;71
77700;DHT22;66867;42.658;23.320;2023-02-01T00:24:00;4.2;71
77700;DHT22;66867;42.658;23.320;2023-02-01T00:25:00;4.1;71
77700;DHT22;66867;42.658;23.320;2023-02-01T00:26:02;4.1;71
77700;DHT22;66867;42.658;23.320;2023-02-01T00:27:00;4.1;71
77700;DHT22;66867;42.658;23.320;2023-02-01T00:28:00;4.2;71
77700;DHT22;66867;42.658;23.320;2023-02-01T00:29:01;4.1;71
77700;DHT22;66867;42.658;23.320;2023-02-01T00:30:00;4.0;71
77700;DHT22;66867;42.658;23.320;2023-02-01T00:31:01;4.0;71
77700;DHT22;66867;42.658;23.320;2023-02-01T00:32:00;3.9;71
77700;DHT22;66867;42.658;23.320;2023-02-01T00:33:00;4.0;72
77700;DHT22;66867;42.658;23.320;2023-02-01T00:34:00;4.0;72
77700;DHT22;66867;42.658;23.320;2023-02-01T00:35:00;4.0;71
77700;DHT22;66867;42.658;23.320;2023-02-01T00:36:01;3.9;71
77700;DHT22;66867;42.658;23.320;2023-02-01T00:37:00;4.0;71
77700;DHT22;66867;42.658;23.320;2023-02-01T00:38:00;4.0;71
77700;DHT22;66867;42.658;23.320;2023-02-01T00:39:00;4.0;71
77700;DHT22;66867;42.658;23.320;2023-02-01T00:40:00;4.0;71
77700;DHT22;66867;42.658;23.320;2023-02-01T00:41:02;4.0;70
77700;DHT22;66867;42.658;23.320;2023-02-01T00:42:00;4.0;70
77700;DHT22;66867;42.658;23.320;2023-02-01T00:43:00;4.0;70
77700;DHT22;66867;42.658;23.320;2023-02-01T00:44:00;3.9;70
77700;DHT22;66867;42.658;23.320;2023-02-01T00:45:00;3.8;70
77700;DHT22;66867;42.658;23.320;2023-02-01T00:46:00;3.8;70
77700;DHT22;66867;42.658;23.320;2023-02-01T00:47:00;3.9;70
77700;DHT22;66867;42.658;23.320;2023-02-01T00:48:00;3.9;70
77700;DHT22;66867;42.658;23.320;2023-02-01T00:49:00;3.8;70
77700;DHT22;66867;42.658;23.320;2023-02-01T00:50:00;3.7;70
77700;DHT22;66867;42.658;23.320;2023-02-01T00:51:01;3.7;70
77700;DHT22;66867;42.658;23.320;2023-02-01T00:52:00;3.8;70
77700;DHT22;66867;42.658;23.320;2023-02-01T00:53:00;3.8;70
77700;DHT22;66867;42.658;23.320;2023-02-01T00:54:00;3.8;70
77700;DHT22;66867;42.658;23.320;2023-02-01T00:55:00;3.8;70
77700;DHT22;66867;42.658;23.320;2023-02-01T00:56:01;3.7;70
77700;DHT22;66867;42.658;23.320;2023-02-01T00:57:00;3.8;70
77700;DHT22;66867;42.658;23.320;2023-02-01T00:58:00;3.7;70
77700;DHT22;66867;42.658;23.320;2023-02-01T00:59:00;3.7;70
77700;DHT22;66867;42.658;23.320;2023-02-01T01:00:00;3.7;70
77700;DHT22;66867;42.658;23.320;2023-02-01T01:01:01;3.8;70
77700;DHT22;66867;42.658;23.320;2023-02-01T01:02:00;3.8;70
77700;DHT22;66867;42.658;23.320;2023-02-01T01:03:00;3.8;70
77700;DHT22;66867;42.658;23.320;2023-02-01T01:04:00;3.8;70
77700;DHT22;66867;42.658;23.320;2023-02-01T01:05:00;3.8;70
77700;DHT22;66867;42.658;23.320;2023-02-01T01:06:01;3.8;69
77700;DHT22;66867;42.658;23.320;2023-02-01T01:07:00;3.8;70
77700;DHT22;66867;42.658;23.320;2023-02-01T01:08:00;3.8;69
77700;DHT22;66867;42.658;23.320;2023-02-01T01:09:01;3.8;69
77700;DHT22;66867;42.658;23.320;2023-02-01T01:10:00;3.8;69
77700;DHT22;66867;42.658;23.320;2023-02-01T01:11:04;3.9;69
77700;DHT22;66867;42.658;23.320;2023-02-01T01:12:00;3.9;69
77700;DHT22;66867;42.658;23.320;2023-02-01T01:13:00;3.9;69
77700;DHT22;66867;42.658;23.320;2023-02-01T01:14:00;3.8;69
77700;DHT22;66867;42.658;23.320;2023-02-01T01:15:00;3.9;69
77700;DHT22;66867;42.658;23.320;2023-02-01T01:16:01;3.9;68
77700;DHT22;66867;42.658;23.320;2023-02-01T01:17:00;3.9;69
77700;DHT22;66867;42.658;23.320;2023-02-01T01:18:00;3.9;68
77700;DHT22;66867;42.658;23.320;2023-02-01T01:19:00;3.8;69
77700;DHT22;66867;42.658;23.320;2023-02-01T01:20:00;3.9;68
77700;DHT22;66867;42.658;23.320;2023-02-01T01:21:00;3.9;68
77700;DHT22;66867;42.658;23.320;2023-02-01T01:22:00;3.9;68
77700;DHT22;66867;42.658;23.320;2023-02-01T01:23:00;3.9;68
77700;DHT22;66867;42.658;23.320;2023-02-01T01:24:00;3.8;68
77700;DHT22;66867;42.658;23.320;2023-02-01T01:25:00;3.7;68
77700;DHT22;66867;42.658;23.320;2023-02-01T01:26:00;3.8;68
77700;DHT22;66867;42.658;23.320;2023-02-01T01:27:00;3.8;68
77700;DHT22;66867;42.658;23.320;2023-02-01T01:28:00;3.9;68
77700;DHT22;66867;42.658;23.320;2023-02-01T01:29:00;3.8;68
77700;DHT22;66867;42.658;23.320;2023-02-01T01:30:00;3.8;68
77700;DHT22;66867;42.658;23.320;2023-02-01T01:31:00;3.9;67
77700;DHT22;66867;42.658;23.320;2023-02-01T01:32:00;3.8;67
77700;DHT22;66867;42.658;23.320;2023-02-01T01:33:00;3.8;67
77700;DHT22;66867;42.658;23.320;2023-02-01T01:34:00;3.8;67
77700;DHT22;66867;42.658;23.320;2023-02-01T01:35:00;3.9;67
77700;DHT22;66867;42.658;23.320;2023-02-01T01:36:00;3.9;67
77700;DHT22;66867;42.658;23.320;2023-02-01T01:37:00;4.0;67
77700;DHT22;66867;42.658;23.320;2023-02-01T01:38:00;4.0;67
77700;DHT22;66867;42.658;23.320;2023-02-01T01:39:00;4.0;66
77700;DHT22;66867;42.658;23.320;2023-02-01T01:40:00;4.0;66
77700;DHT22;66867;42.658;23.320;2023-02-01T01:41:00;4.0;66
77700;DHT22;66867;42.658;23.320;2023-02-01T01:42:00;3.9;66
77700;DHT22;66867;42.658;23.320;2023-02-01T01:43:00;3.9;66
77700;DHT22;66867;42.658;23.320;2023-02-01T01:44:01;3.9;66
77700;DHT22;66867;42.658;23.320;2023-02-01T01:45:01;3.9;66
77700;DHT22;66867;42.658;23.320;2023-02-01T01:46:00;3.9;66
77700;DHT22;66867;42.658;23.320;2023-02-01T01:47:00;3.9;66
77700;DHT22;66867;42.658;23.320;2023-02-01T01:50:00;3.8;66
77700;DHT22;66867;42.658;23.320;2023-02-01T01:51:01;3.9;66
77700;DHT22;66867;42.658;23.320;2023-02-01T01:52:00;3.9;66
77700;DHT22;66867;42.658;23.320;2023-02-01T01:53:00;3.8;66
77700;DHT22;66867;42.658;23.320;2023-02-01T01:54:02;3.7;66
77700;DHT22;66867;42.658;23.320;2023-02-01T01:55:00;3.8;66
77700;DHT22;66867;42.658;23.320;2023-02-01T01:56:00;3.8;66
77700;DHT22;66867;42.658;23.320;2023-02-01T01:57:04;3.7;66
77700;DHT22;66867;42.658;23.320;2023-02-01T01:58:02;3.7;66
77700;DHT22;66867;42.658;23.320;2023-02-01T01:59:00;3.8;66
77700;DHT22;66867;42.658;23.320;2023-02-01T02:00:02;3.8;66
77700;DHT22;66867;42.658;23.320;2023-02-01T02:01:00;3.8;66
77700;DHT22;66867;42.658;23.320;2023-02-01T02:02:00;3.8;66
77700;DHT22;66867;42.658;23.320;2023-02-01T02:03:02;3.8;66
77700;DHT22;66867;42.658;23.320;2023-02-01T02:04:00;3.9;66
77700;DHT22;66867;42.658;23.320;2023-02-01T02:05:00;3.9;66
77700;DHT22;66867;42.658;23.320;2023-02-01T02:06:00;3.9;66
77700;DHT22;66867;42.658;23.320;2023-02-01T02:07:03;3.8;66
77700;DHT22;66867;42.658;23.320;2023-02-01T02:08:00;3.8;66
77700;DHT22;66867;42.658;23.320;2023-02-01T02:09:00;3.7;66
77700;DHT22;66867;42.658;23.320;2023-02-01T02:10:00;3.7;66
77700;DHT22;66867;42.658;23.320;2023-02-01T02:11:00;3.7;66
77700;DHT22;66867;42.658;23.320;2023-02-01T02:12:00;3.7;66
77700;DHT22;66867;42.658;23.320;2023-02-01T02:13:00;3.7;66
77700;DHT22;66867;42.658;23.320;2023-02-01T02:14:00;3.7;66
77700;DHT22;66867;42.658;23.320;2023-02-01T02:15:00;3.7;66
77700;DHT22;66867;42.658;23.320;2023-02-01T02:18:04;3.7;66
77700;DHT22;66867;42.658;23.320;2023-02-01T02:21:17;3.7;66
77700;DHT22;66867;42.658;23.320;2023-02-01T02:27:01;3.6;66
77700;DHT22;66867;42.658;23.320;2023-02-01T02:29:07;3.6;66
77700;DHT22;66867;42.658;23.320;2023-02-01T02:35:18;3.6;66
77700;DHT22;66867;42.658;23.320;2023-02-01T02:37:20;3.7;66
77700;DHT22;66867;42.658;23.320;2023-02-01T02:41:07;3.5;66
77700;DHT22;66867;42.658;23.320;2023-02-01T02:42:02;3.4;67
77700;DHT22;66867;42.658;23.320;2023-02-01T02:44:00;3.5;67
77700;DHT22;66867;42.658;23.320;2023-02-01T02:45:03;3.5;67
77700;DHT22;66867;42.658;23.320;2023-02-01T02:46:01;3.6;66
77700;DHT22;66867;42.658;23.320;2023-02-01T02:47:02;3.5;66
77700;DHT22;66867;42.658;23.320;2023-02-01T02:52:03;3.4;66
77700;DHT22;66867;42.658;23.320;2023-02-01T02:53:02;3.4;66
77700;DHT22;66867;42.658;23.320;2023-02-01T02:54:02;3.4;66
77700;DHT22;66867;42.658;23.320;2023-02-01T02:55:00;3.4;66
77700;DHT22;66867;42.658;23.320;2023-02-01T02:56:00;3.4;66
77700;DHT22;66867;42.658;23.320;2023-02-01T02:57:00;3.4;66
77700;DHT22;66867;42.658;23.320;2023-02-01T02:58:00;3.3;66
77700;DHT22;66867;42.658;23.320;2023-02-01T02:59:00;3.2;67
77700;DHT22;66867;42.658;23.320;2023-02-01T03:00:00;3.3;67
77700;DHT22;66867;42.658;23.320;2023-02-01T03:01:00;3.3;67
77700;DHT22;66867;42.658;23.320;2023-02-01T03:02:00;3.3;66
77700;DHT22;66867;42.658;23.320;2023-02-01T03:03:00;3.3;67
77700;DHT22;66867;42.658;23.320;2023-02-01T03:04:00;3.3;67
77700;DHT22;66867;42.658;23.320;2023-02-01T03:05:00;3.3;67
77700;DHT22;66867;42.658;23.320;2023-02-01T03:06:00;3.4;66
77700;DHT22;66867;42.658;23.320;2023-02-01T03:08:01;3.3;66
77700;DHT22;66867;42.658;23.320;2023-02-01T03:09:01;3.4;66
77700;DHT22;66867;42.658;23.320;2023-02-01T03:10:02;3.3;66
77700;DHT22;66867;42.658;23.320;2023-02-01T03:12:01;3.3;66
77700;DHT22;66867;42.658;23.320;2023-02-01T03:13:02;3.3;66
77700;DHT22;66867;42.658;23.320;2023-02-01T03:14:00;3.3;66
77700;DHT22;66867;42.658;23.320;2023-02-01T03:15:03;3.3;66
77700;DHT22;66867;42.658;23.320;2023-02-01T03:16:21;3.2;66
77700;DHT22;66867;42.658;23.320;2023-02-01T03:17:03;3.2;66
77700;DHT22;66867;42.658;23.320;2023-02-01T03:18:00;3.2;66
77700;DHT22;66867;42.658;23.320;2023-02-01T03:20:00;3.2;66
77700;DHT22;66867;42.658;23.320;2023-02-01T03:21:00;3.2;66
77700;DHT22;66867;42.658;23.320;2023-02-01T03:22:02;3.2;66
77700;DHT22;66867;42.658;23.320;2023-02-01T03:23:00;3.3;66
77700;DHT22;66867;42.658;23.320;2023-02-01T03:24:02;3.2;66
77700;DHT22;66867;42.658;23.320;2023-02-01T03:25:02;3.3;66
77700;DHT22;66867;42.658;23.320;2023-02-01T03:26:00;3.3;66
77700;DHT22;66867;42.658;23.320;2023-02-01T03:28:01;3.4;66
77700;DHT22;66867;42.658;23.320;2023-02-01T03:29:05;3.5;66
77700;DHT22;66867;42.658;23.320;2023-02-01T03:30:06;3.5;66
77700;DHT22;66867;42.658;23.320;2023-02-01T03:31:00;3.5;66
77700;DHT22;66867;42.658;23.320;2023-02-01T03:32:00;3.4;66
77700;DHT22;66867;42.658;23.320;2023-02-01T03:33:00;3.4;66
77700;DHT22;66867;42.658;23.320;2023-02-01T03:34:00;3.3;66
77700;DHT22;66867;42.658;23.320;2023-02-01T03:35:00;3.4;66
77700;DHT22;66867;42.658;23.320;2023-02-01T03:36:10;3.3;66
77700;DHT22;66867;42.658;23.320;2023-02-01T03:37:02;3.4;66
77700;DHT22;66867;42.658;23.320;2023-02-01T03:38:04;3.4;66
77700;DHT22;66867;42.658;23.320;2023-02-01T03:39:02;3.4;66
77700;DHT22;66867;42.658;23.320;2023-02-01T03:40:01;3.4;66
77700;DHT22;66867;42.658;23.320;2023-02-01T03:42:01;3.4;66
77700;DHT22;66867;42.658;23.320;2023-02-01T03:43:00;3.5;66
77700;DHT22;66867;42.658;23.320;2023-02-01T03:45:03;3.6;66
77700;DHT22;66867;42.658;23.320;2023-02-01T03:46:01;3.6;66
77700;DHT22;66867;42.658;23.320;2023-02-01T03:47:04;3.5;66
77700;DHT22;66867;42.658;23.320;2023-02-01T03:48:00;3.6;66
77700;DHT22;66867;42.658;23.320;2023-02-01T03:49:01;3.6;66
77700;DHT22;66867;42.658;23.320;2023-02-01T03:50:01;3.6;66
77700;DHT22;66867;42.658;23.320;2023-02-01T03:51:00;3.6;66
77700;DHT22;66867;42.658;23.320;2023-02-01T03:52:00;3.5;66
77700;DHT22;66867;42.658;23.320;2023-02-01T03:53:02;3.6;66
77700;DHT22;66867;42.658;23.320;2023-02-01T03:54:00;3.6;66
77700;DHT22;66867;42.658;23.320;2023-02-01T03:55:00;3.6;66
77700;DHT22;66867;42.658;23.320;2023-02-01T03:56:00;3.5;66
77700;DHT22;66867;42.658;23.320;2023-02-01T03:57:01;3.5;66
77700;DHT22;66867;42.658;23.320;2023-02-01T03:59:00;3.4;66
77700;DHT22;66867;42.658;23.320;2023-02-01T04:00:05;3.5;66
77700;DHT22;66867;42.658;23.320;2023-02-01T04:01:00;3.5;66
77700;DHT22;66867;42.658;23.320;2023-02-01T04:02:00;3.4;66
77700;DHT22;66867;42.658;23.320;2023-02-01T04:03:00;3.4;66
77700;DHT22;66867;42.658;23.320;2023-02-01T04:04:00;3.5;66
77700;DHT22;66867;42.658;23.320;2023-02-01T04:05:00;3.5;66
77700;DHT22;66867;42.658;23.320;2023-02-01T04:06:00;3.5;66
77700;DHT22;66867;42.658;23.320;2023-02-01T04:07:00;3.5;66
77700;DHT22;66867;42.658;23.320;2023-02-01T04:08:00;3.5;66
77700;DHT22;66867;42.658;23.320;2023-02-01T04:09:00;3.4;66
77700;DHT22;66867;42.658;23.320;2023-02-01T04:10:00;3.5;66
77700;DHT22;66867;42.658;23.320;2023-02-01T04:11:00;3.5;66
77700;DHT22;66867;42.658;23.320;2023-02-01T04:12:00;3.5;66
77700;DHT22;66867;42.658;23.320;2023-02-01T04:13:00;3.5;66
77700;DHT22;66867;42.658;23.320;2023-02-01T04:14:00;3.6;66
77700;DHT22;66867;42.658;23.320;2023-02-01T04:15:00;3.6;66
77700;DHT22;66867;42.658;23.320;2023-02-01T04:16:00;3.5;66
77700;DHT22;66867;42.658;23.320;2023-02-01T04:17:00;3.5;67
77700;DHT22;66867;42.658;23.320;2023-02-01T04:18:00;3.5;67
77700;DHT22;66867;42.658;23.320;2023-02-01T04:19:00;3.6;67
77700;DHT22;66867;42.658;23.320;2023-02-01T04:20:00;3.5;67
77700;DHT22;66867;42.658;23.320;2023-02-01T04:21:00;3.4;67
77700;DHT22;66867;42.658;23.320;2023-02-01T04:22:00;3.3;68
77700;DHT22;66867;42.658;23.320;2023-02-01T04:23:00;3.5;68
77700;DHT22;66867;42.658;23.320;2023-02-01T04:24:00;3.4;68
77700;DHT22;66867;42.658;23.320;2023-02-01T04:25:00;3.5;68
77700;DHT22;66867;42.658;23.320;2023-02-01T04:26:00;3.5;68
77700;DHT22;66867;42.658;23.320;2023-02-01T04:27:00;3.5;68
77700;DHT22;66867;42.658;23.320;2023-02-01T04:28:00;3.5;68
77700;DHT22;66867;42.658;23.320;2023-02-01T04:29:00;3.4;68
77700;DHT22;66867;42.658;23.320;2023-02-01T04:30:00;3.3;68
77700;DHT22;66867;42.658;23.320;2023-02-01T04:31:00;3.2;69
77700;DHT22;66867;42.658;23.320;2023-02-01T04:32:00;3.4;69
77700;DHT22;66867;42.658;23.320;2023-02-01T04:33:00;3.4;69
77700;DHT22;66867;42.658;23.320;2023-02-01T04:34:00;3.3;69
77700;DHT22;66867;42.658;23.320;2023-02-01T04:35:00;3.3;69
77700;DHT22;66867;42.658;23.320;2023-02-01T04:36:00;3.3;69
77700;DHT22;66867;42.658;23.320;2023-02-01T04:37:00;3.3;69
77700;DHT22;66867;42.658;23.320;2023-02-01T04:38:00;3.4;69
77700;DHT22;66867;42.658;23.320;2023-02-01T04:39:00;3.4;69
77700;DHT22;66867;42.658;23.320;2023-02-01T04:40:00;3.4;69
77700;DHT22;66867;42.658;23.320;2023-02-01T04:41:00;3.4;69
77700;DHT22;66867;42.658;23.320;2023-02-01T04:42:00;3.5;69
77700;DHT22;66867;42.658;23.320;2023-02-01T04:43:00;3.5;69
77700;DHT22;66867;42.658;23.320;2023-02-01T04:44:00;3.5;69
77700;DHT22;66867;42.658;23.320;2023-02-01T04:45:00;3.5;69
77700;DHT22;66867;42.658;23.320;2023-02-01T04:46:00;3.6;69
77700;DHT22;66867;42.658;23.320;2023-02-01T04:47:00;3.6;69
77700;DHT22;66867;42.658;23.320;2023-02-01T04:48:00;3.6;69
77700;DHT22;66867;42.658;23.320;2023-02-01T04:49:00;3.6;69
77700;DHT22;66867;42.658;23.320;2023-02-01T04:50:00;3.5;69
77700;DHT22;66867;42.658;23.320;2023-02-01T04:51:00;3.6;69
77700;DHT22;66867;42.658;23.320;2023-02-01T04:52:00;3.6;69
77700;DHT22;66867;42.658;23.320;2023-02-01T04:53:00;3.6;69
77700;DHT22;66867;42.658;23.320;2023-02-01T04:54:00;3.6;70
77700;DHT22;66867;42.658;23.320;2023-02-01T04:55:00;3.6;69
77700;DHT22;66867;42.658;23.320;2023-02-01T04:56:00;3.7;69
77700;DHT22;66867;42.658;23.320;2023-02-01T04:57:00;3.7;69
77700;DHT22;66867;42.658;23.320;2023-02-01T04:58:00;3.6;69
77700;DHT22;66867;42.658;23.320;2023-02-01T04:59:00;3.7;69
77700;DHT22;66867;42.658;23.320;2023-02-01T05:00:00;3.6;70
77700;DHT22;66867;42.658;23.320;2023-02-01T05:01:04;3.7;70
77700;DHT22;66867;42.658;23.320;2023-02-01T05:02:00;3.7;70
77700;DHT22;66867;42.658;23.320;2023-02-01T05:03:00;3.7;70
77700;DHT22;66867;42.658;23.320;2023-02-01T05:04:00;3.7;70
77700;DHT22;66867;42.658;23.320;2023-02-01T05:05:00;3.7;70
77700;DHT22;66867;42.658;23.320;2023-02-01T05:06:00;3.7;70
77700;DHT22;66867;42.658;23.320;2023-02-01T05:07:00;3.6;70
77700;DHT22;66867;42.658;23.320;2023-02-01T05:08:00;3.7;70
77700;DHT22;66867;42.658;23.320;2023-02-01T05:09:00;3.6;70
77700;DHT22;66867;42.658;23.320;2023-02-01T05:10:00;3.7;70
77700;DHT22;66867;42.658;23.320;2023-02-01T05:11:00;3.6;70
77700;DHT22;66867;42.658;23.320;2023-02-01T05:12:00;3.5;71
77700;DHT22;66867;42.658;23.320;2023-02-01T05:13:00;3.5;71
77700;DHT22;66867;42.658;23.320;2023-02-01T05:14:00;3.4;71
77700;DHT22;66867;42.658;23.320;2023-02-01T05:15:00;3.5;71
77700;DHT22;66867;42.658;23.320;2023-02-01T05:16:00;3.5;71
77700;DHT22;66867;42.658;23.320;2023-02-01T05:17:00;3.6;71
77700;DHT22;66867;42.658;23.320;2023-02-01T05:18:00;3.6;71
77700;DHT22;66867;42.658;23.320;2023-02-01T05:19:00;3.5;71
77700;DHT22;66867;42.658;23.320;2023-02-01T05:20:00;3.5;71
77700;DHT22;66867;42.658;23.320;2023-02-01T05:21:00;3.5;71
77700;DHT22;66867;42.658;23.320;2023-02-01T05:22:00;3.6;71
77700;DHT22;66867;42.658;23.320;2023-02-01T05:23:00;3.7;71
77700;DHT22;66867;42.658;23.320;2023-02-01T05:24:00;3.6;71
77700;DHT22;66867;42.658;23.320;2023-02-01T05:25:00;3.7;71
77700;DHT22;66867;42.658;23.320;2023-02-01T05:26:00;3.7;71
77700;DHT22;66867;42.658;23.320;2023-02-01T05:27:00;3.7;71
77700;DHT22;66867;42.658;23.320;2023-02-01T05:28:00;3.7;71
77700;DHT22;66867;42.658;23.320;2023-02-01T05:29:00;3.6;71
77700;DHT22;66867;42.658;23.320;2023-02-01T05:30:00;3.6;71
77700;DHT22;66867;42.658;23.320;2023-02-01T05:31:00;3.6;71
77700;DHT22;66867;42.658;23.320;2023-02-01T05:32:00;3.7;71
77700;DHT22;66867;42.658;23.320;2023-02-01T05:33:00;3.7;71
77700;DHT22;66867;42.658;23.320;2023-02-01T05:34:00;3.7;71
77700;DHT22;66867;42.658;23.320;2023-02-01T05:35:00;3.6;71
77700;DHT22;66867;42.658;23.320;2023-02-01T05:36:00;3.6;71
77700;DHT22;66867;42.658;23.320;2023-02-01T05:37:00;3.6;71
77700;DHT22;66867;42.658;23.320;2023-02-01T05:38:00;3.7;71
77700;DHT22;66867;42.658;23.320;2023-02-01T05:39:00;3.6;71
77700;DHT22;66867;42.658;23.320;2023-02-01T05:41:00;3.8;71
77700;DHT22;66867;42.658;23.320;2023-02-01T05:42:00;3.7;71
77700;DHT22;66867;42.658;23.320;2023-02-01T05:43:00;3.7;71
77700;DHT22;66867;42.658;23.320;2023-02-01T05:44:00;3.7;71
77700;DHT22;66867;42.658;23.320;2023-02-01T05:45:00;3.8;71
77700;DHT22;66867;42.658;23.320;2023-02-01T05:46:00;3.8;70
77700;DHT22;66867;42.658;23.320;2023-02-01T05:47:00;3.8;71
77700;DHT22;66867;42.658;23.320;2023-02-01T05:48:00;3.8;70
77700;DHT22;66867;42.658;23.320;2023-02-01T05:49:00;3.7;71
77700;DHT22;66867;42.658;23.320;2023-02-01T05:50:00;3.8;70
77700;DHT22;66867;42.658;23.320;2023-02-01T05:51:00;3.8;70
77700;DHT22;66867;42.658;23.320;2023-02-01T05:52:00;3.8;70
77700;DHT22;66867;42.658;23.320;2023-02-01T05:53:00;3.8;70
77700;DHT22;66867;42.658;23.320;2023-02-01T05:55:00;3.8;70
77700;DHT22;66867;42.658;23.320;2023-02-01T05:57:00;3.7;71
77700;DHT22;66867;42.658;23.320;2023-02-01T05:58:00;3.8;70
77700;DHT22;66867;42.658;23.320;2023-02-01T05:59:00;3.9;70
77700;DHT22;66867;42.658;23.320;2023-02-01T06:00:00;3.9;70
77700;DHT22;66867;42.658;23.320;2023-02-01T06:01:00;3.9;70
77700;DHT22;66867;42.658;23.320;2023-02-01T06:02:00;3.8;70
77700;DHT22;66867;42.658;23.320;2023-02-01T06:03:00;3.9;70
77700;DHT22;66867;42.658;23.320;2023-02-01T06:04:00;3.9;70
77700;DHT22;66867;42.658;23.320;2023-02-01T06:05:00;3.9;70
77700;DHT22;66867;42.658;23.320;2023-02-01T06:06:00;3.9;69
77700;DHT22;66867;42.658;23.320;2023-02-01T06:07:00;3.9;70
77700;DHT22;66867;42.658;23.320;2023-02-01T06:08:00;3.9;70
77700;DHT22;66867;42.658;23.320;2023-02-01T06:09:00;3.9;69
77700;DHT22;66867;42.658;23.320;2023-02-01T06:10:00;4.0;69
77700;DHT22;66867;42.658;23.320;2023-02-01T06:11:01;4.0;69
77700;DHT22;66867;42.658;23.320;2023-02-01T06:12:00;4.0;69
77700;DHT22;66867;42.658;23.320;2023-02-01T06:13:00;4.0;69
77700;DHT22;66867;42.658;23.320;2023-02-01T06:14:00;4.0;69
77700;DHT22;66867;42.658;23.320;2023-02-01T06:15:00;4.0;69
77700;DHT22;66867;42.658;23.320;2023-02-01T06:16:01;4.0;69
77700;DHT22;66867;42.658;23.320;2023-02-01T06:17:00;4.0;69
77700;DHT22;66867;42.658;23.320;2023-02-01T06:18:00;4.0;69
77700;DHT22;66867;42.658;23.320;2023-02-01T06:19:00;4.0;69
77700;DHT22;66867;42.658;23.320;2023-02-01T06:20:00;4.0;69
77700;DHT22;66867;42.658;23.320;2023-02-01T06:21:00;3.9;69
77700;DHT22;66867;42.658;23.320;2023-02-01T06:22:00;3.9;69
77700;DHT22;66867;42.658;23.320;2023-02-01T06:23:00;3.9;69
77700;DHT22;66867;42.658;23.320;2023-02-01T06:24:00;4.0;69
77700;DHT22;66867;42.658;23.320;2023-02-01T06:25:00;4.0;69
77700;DHT22;66867;42.658;23.320;2023-02-01T06:26:02;4.1;68
77700;DHT22;66867;42.658;23.320;2023-02-01T06:27:00;4.1;68
77700;DHT22;66867;42.658;23.320;2023-02-01T06:28:00;4.2;69
77700;DHT22;66867;42.658;23.320;2023-02-01T06:29:00;4.2;68
77700;DHT22;66867;42.658;23.320;2023-02-01T06:30:00;4.1;68
77700;DHT22;66867;42.658;23.320;2023-02-01T06:31:07;4.2;68
77700;DHT22;66867;42.658;23.320;2023-02-01T06:32:00;4.2;68
77700;DHT22;66867;42.658;23.320;2023-02-01T06:33:00;4.2;68
77700;DHT22;66867;42.658;23.320;2023-02-01T06:34:00;4.3;68
77700;DHT22;66867;42.658;23.320;2023-02-01T06:35:00;4.2;68
77700;DHT22;66867;42.658;23.320;2023-02-01T06:36:00;4.3;68
77700;DHT22;66867;42.658;23.320;2023-02-01T06:37:00;4.3;68
77700;DHT22;66867;42.658;23.320;2023-02-01T06:38:00;4.3;68
77700;DHT22;66867;42.658;23.320;2023-02-01T06:39:00;4.4;68
77700;DHT22;66867;42.658;23.320;2023-02-01T06:40:00;4.4;67
77700;DHT22;66867;42.658;23.320;2023-02-01T06:41:00;4.3;68
77700;DHT22;66867;42.658;23.320;2023-02-01T06:47:00;4.5;67
77700;DHT22;66867;42.658;23.320;2023-02-01T06:48:00;4.5;67
77700;DHT22;66867;42.658;23.320;2023-02-01T06:49:00;4.5;67
77700;DHT22;66867;42.658;23.320;2023-02-01T06:50:00;4.4;67
77700;DHT22;66867;42.658;23.320;2023-02-01T06:51:00;4.4;67
77700;DHT22;66867;42.658;23.320;2023-02-01T06:52:00;4.4;67
77700;DHT22;66867;42.658;23.320;2023-02-01T06:53:00;4.5;67
77700;DHT22;66867;42.658;23.320;2023-02-01T06:54:00;4.5;67
77700;DHT22;66867;42.658;23.320;2023-02-01T06:55:00;4.6;67
77700;DHT22;66867;42.658;23.320;2023-02-01T06:56:01;4.5;67
77700;DHT22;66867;42.658;23.320;2023-02-01T06:57:00;4.5;67
77700;DHT22;66867;42.658;23.320;2023-02-01T06:58:00;4.4;67
77700;DHT22;66867;42.658;23.320;2023-02-01T06:59:02;4.5;67
77700;DHT22;66867;42.658;23.320;2023-02-01T07:00:00;4.5;67
77700;DHT22;66867;42.658;23.320;2023-02-01T07:01:08;4.6;67
77700;DHT22;66867;42.658;23.320;2023-02-01T07:02:00;4.6;66
77700;DHT22;66867;42.658;23.320;2023-02-01T07:03:00;4.6;67
77700;DHT22;66867;42.658;23.320;2023-02-01T07:04:00;4.5;67
77700;DHT22;66867;42.658;23.320;2023-02-01T07:05:00;4.6;66
77700;DHT22;66867;42.658;23.320;2023-02-01T07:06:00;4.6;66
77700;DHT22;66867;42.658;23.320;2023-02-01T07:07:00;4.6;66
77700;DHT22;66867;42.658;23.320;2023-02-01T07:08:00;4.5;66
77700;DHT22;66867;42.658;23.320;2023-02-01T07:09:00;4.4;67
77700;DHT22;66867;42.658;23.320;2023-02-01T07:10:00;4.5;67
77700;DHT22;66867;42.658;23.320;2023-02-01T07:11:03;4.4;67
77700;DHT22;66867;42.658;23.320;2023-02-01T07:12:00;4.5;67
77700;DHT22;66867;42.658;23.320;2023-02-01T07:13:00;4.5;67
77700;DHT22;66867;42.658;23.320;2023-02-01T07:14:00;4.6;67
77700;DHT22;66867;42.658;23.320;2023-02-01T07:15:00;4.6;66
77700;DHT22;66867;42.658;23.320;2023-02-01T07:16:00;4.5;66
77700;DHT22;66867;42.658;23.320;2023-02-01T07:17:00;4.5;66
77700;DHT22;66867;42.658;23.320;2023-02-01T07:18:00;4.5;66
77700;DHT22;66867;42.658;23.320;2023-02-01T07:19:00;4.5;66
77700;DHT22;66867;42.658;23.320;2023-02-01T07:20:00;4.5;66
77700;DHT22;66867;42.658;23.320;2023-02-01T07:21:00;4.5;66
77700;DHT22;66867;42.658;23.320;2023-02-01T07:22:00;4.5;66
77700;DHT22;66867;42.658;23.320;2023-02-01T07:23:00;4.6;66
77700;DHT22;66867;42.658;23.320;2023-02-01T07:24:00;4.6;66
77700;DHT22;66867;42.658;23.320;2023-02-01T07:25:00;4.6;66